Overview Statistics Trail Chart Weather Telemetry Raw packets
 

This is the latest recevied weather packets stored in our database for station/object HP3ICC-23. If no packets are shown the sender has not sent any weather packets the latest 10 day(s).

<< 15 16 17 18 19 20 21 >>
Time Temp. Humidity Pressure Rain* Wind** Luminosity Snow
1788382953 16.11° C 81% 1012 hPa 0 mm - - -
1788382893 16.11° C 81% 1012 hPa 0 mm - - -
1788381753 16.11° C 80% 1012 hPa 0 mm - - -
1788381693 16.11° C 80% 1012 hPa 0 mm - - -
1788380553 17.22° C 77% 1013 hPa 0 mm - - -
1788380493 17.22° C 77% 1013 hPa 0 mm - - -
1788379352 17.22° C 79% 1013 hPa 0 mm - - -
1788379292 17.22° C 79% 1013 hPa 0 mm - - -
1788378152 17.22° C 77% 1013 hPa 0 mm - - -
1788378092 17.22° C 77% 1013 hPa 0 mm - - -
1788376952 17.78° C 74% 1013 hPa 0.25 mm - - -
1788376892 17.78° C 74% 1013 hPa 0.25 mm - - -
1788375757 17.78° C 75% 1013 hPa 0.25 mm - - -
1788375691 17.78° C 75% 1013 hPa 0.25 mm - - -
1788374551 17.78° C 73% 1013 hPa 0.25 mm - - -
1788374491 17.78° C 73% 1013 hPa 0.25 mm - - -
1788373351 18.33° C 69% 1014 hPa 0.25 mm - - -
1788373290 18.33° C 69% 1014 hPa 0.25 mm - - -
1788372150 17.78° C 70% 1014 hPa 0.25 mm - - -
1788372090 17.78° C 70% 1014 hPa 0.25 mm - - -
1788370950 17.22° C 69% 1014 hPa 0.25 mm - - -
1788370889 17.22° C 69% 1014 hPa 0.25 mm - - -
1788369749 17.78° C 66% 1014 hPa 0 mm - - -
1788369689 17.78° C 66% 1014 hPa 0 mm - - -
1788368549 17.22° C 66% 1014 hPa 0 mm - - -

* Rain latest hour (hover to see other rain measurements)
** Current wind speed in m/s (hover to see current wind gust speed)